Time;durP1;ratioP1;P1;durP2;ratioP2;P2;SDS_P1;SDS_P2;PMS_P1;PMS_P2;Temp;Humidity;BMP_temperature;BMP_pressure;BME280_temperature;BME280_humidity;BME280_pressure;Samples;Min_cycle;Max_cycle;Signal;HPM_P1;HPM_P2
2022/04/16 00:02:37;;;;;;;12.10;6.18;;;;;;;7.90;100.00;102953.63;6224532;28;20184;-71
2022/04/16 00:05:38;;;;;;;13.80;6.25;;;;;;;7.94;100.00;102957.13;6224695;28;20382;-70
2022/04/16 00:08:40;;;;;;;15.05;5.63;;;;;;;7.92;100.00;102962.38;6224728;28;20054;-70
2022/04/16 00:11:41;;;;;;;18.50;6.38;;;;;;;7.91;100.00;102965.88;6223909;28;20061;-70
2022/04/16 00:14:44;;;;;;;11.60;5.32;;;;;;;7.90;100.00;102961.50;6224851;28;20049;-70
2022/04/16 00:17:45;;;;;;;13.30;5.28;;;;;;;7.89;100.00;102963.25;6224735;28;20053;-70
2022/04/16 00:20:49;;;;;;;11.88;5.05;;;;;;;7.86;100.00;102954.56;6223885;28;20485;-71
2022/04/16 00:23:51;;;;;;;17.40;6.28;;;;;;;7.93;100.00;102958.00;6224562;28;20132;-71
2022/04/16 00:26:53;;;;;;;13.77;5.82;;;;;;;7.87;100.00;102956.28;6224132;28;20057;-71
2022/04/16 00:29:56;;;;;;;13.32;5.07;;;;;;;7.87;100.00;102964.16;6224015;28;20054;-71
2022/04/16 00:32:57;;;;;;;15.13;5.57;;;;;;;7.84;100.00;102958.91;6223774;28;20076;-71
2022/04/16 00:35:59;;;;;;;13.13;5.80;;;;;;;7.80;100.00;102957.19;6224112;28;20042;-71
2022/04/16 00:39:00;;;;;;;16.90;5.35;;;;;;;7.83;100.00;102957.19;6224018;28;20057;-70
2022/04/16 00:42:01;;;;;;;11.57;5.25;;;;;;;7.79;100.00;102958.09;6222857;28;20185;-71
2022/04/16 00:45:05;;;;;;;10.10;4.45;;;;;;;7.76;100.00;102964.19;6223872;28;20046;-71
2022/04/16 00:48:07;;;;;;;8.60;4.53;;;;;;;7.72;100.00;102962.50;6223938;28;20056;-71
2022/04/16 00:51:09;;;;;;;9.63;4.47;;;;;;;7.66;100.00;102961.66;6223057;28;20137;-70
2022/04/16 00:54:11;;;;;;;13.38;4.97;;;;;;;7.53;100.00;102966.94;6223988;28;20104;-71
2022/04/16 00:57:12;;;;;;;11.38;4.32;;;;;;;7.54;100.00;102970.41;6223525;28;20069;-70
2022/04/16 01:00:16;;;;;;;9.32;4.00;;;;;;;7.56;100.00;102966.94;6223217;28;20050;-71
2022/04/16 01:03:19;;;;;;;11.23;4.88;;;;;;;7.57;100.00;102973.03;6223683;28;20398;-70
2022/04/16 01:06:20;;;;;;;9.13;4.25;;;;;;;7.53;100.00;102979.16;6223397;28;20050;-71
2022/04/16 01:09:22;;;;;;;8.35;3.75;;;;;;;7.46;100.00;102978.34;6223512;28;20160;-70
2022/04/16 01:12:23;;;;;;;8.35;3.60;;;;;;;7.42;100.00;102994.91;6222575;28;20061;-70
2022/04/16 01:15:29;;;;;;;8.23;3.35;;;;;;;7.44;100.00;102984.44;6223514;28;20045;-71
2022/04/16 01:18:30;;;;;;;9.45;3.70;;;;;;;7.38;100.00;102983.59;6223276;28;20136;-71
2022/04/16 01:21:33;;;;;;;8.65;3.33;;;;;;;7.41;100.00;102990.56;6222722;28;20053;-71
2022/04/16 01:24:37;;;;;;;12.45;4.40;;;;;;;7.35;100.00;102990.56;6222925;28;20123;-71
2022/04/16 01:27:43;;;;;;;6.63;3.13;;;;;;;7.35;100.00;102999.28;6223255;28;20577;-70
2022/04/16 01:30:46;;;;;;;8.82;4.38;;;;;;;7.32;100.00;102993.22;6222167;28;20056;-70
2022/04/16 01:33:47;;;;;;;13.30;4.47;;;;;;;7.28;100.00;102999.34;6223028;28;20056;-71
2022/04/16 01:36:48;;;;;;;12.63;3.47;;;;;;;7.24;100.00;103002.81;6223137;28;20060;-71
2022/04/16 01:39:51;;;;;;;9.13;3.92;;;;;;;7.13;100.00;103013.31;6222258;28;20077;-70
2022/04/16 01:42:56;;;;;;;9.93;3.58;;;;;;;7.16;100.00;103017.66;6221969;28;20500;-71
2022/04/16 01:45:57;;;;;;;6.97;3.53;;;;;;;7.16;100.00;103021.13;6220906;28;20049;-71
2022/04/16 01:48:59;;;;;;;9.15;3.63;;;;;;;7.10;100.00;103015.94;6222468;28;20064;-71
2022/04/16 01:52:01;;;;;;;12.50;2.95;;;;;;;7.06;100.00;103029.88;6221105;28;20053;-70
2022/04/16 01:55:04;;;;;;;7.82;2.45;;;;;;;6.98;100.00;103027.28;6222115;28;20046;-71
2022/04/16 01:58:06;;;;;;;7.72;2.70;;;;;;;6.94;100.00;103033.38;6222137;28;20050;-70
2022/04/16 02:01:08;;;;;;;4.22;2.55;;;;;;;6.92;100.00;103032.53;6221727;28;20054;-70
2022/04/16 02:04:10;;;;;;;2.92;1.75;;;;;;;6.86;100.00;103029.94;6222342;28;20064;-70
2022/04/16 02:07:11;;;;;;;3.83;1.77;;;;;;;6.74;100.00;103033.41;6222482;28;20493;-70
2022/04/16 02:10:16;;;;;;;5.18;2.35;;;;;;;6.65;100.00;103033.41;6221676;28;20054;-70
2022/04/16 02:13:18;;;;;;;3.63;2.05;;;;;;;6.56;100.00;103029.06;6222411;28;20049;-70
2022/04/16 02:16:19;;;;;;;3.40;1.42;;;;;;;6.52;100.00;103034.28;6222285;28;20135;-71
2022/04/16 02:19:20;;;;;;;4.82;1.67;;;;;;;6.51;100.00;103037.78;6222405;28;20057;-70
2022/04/16 02:22:23;;;;;;;2.47;1.40;;;;;;;6.44;100.00;103039.50;6221330;28;20061;-70
2022/04/16 02:25:25;;;;;;;6.45;1.30;;;;;;;6.35;100.00;103048.19;6222114;28;20042;-71
2022/04/16 02:28:27;;;;;;;3.50;1.45;;;;;;;6.36;100.00;103056.94;6222080;28;20046;-71
2022/04/16 02:31:28;;;;;;;3.38;1.60;;;;;;;6.29;100.00;103047.31;6221291;28;20054;-70
2022/04/16 02:34:30;;;;;;;3.30;1.38;;;;;;;6.16;100.00;103053.38;6221965;28;20046;-70
2022/04/16 02:37:31;;;;;;;3.05;1.27;;;;;;;6.13;100.00;103048.16;6221927;28;20054;-71
2022/04/16 02:40:34;;;;;;;2.20;1.10;;;;;;;6.03;100.00;103050.75;6221238;28;20054;-71
2022/04/16 02:43:35;;;;;;;5.07;1.02;;;;;;;5.95;100.00;103056.81;6221758;28;20054;-70
2022/04/16 02:49:55;;;;;;;4.07;1.20;;;;;;;5.90;100.00;103063.72;6221271;28;20058;-70
2022/04/16 02:52:58;;;;;;;4.25;0.95;;;;;;;5.84;100.00;103062.81;6221472;28;20050;-71
2022/04/16 02:56:00;;;;;;;3.45;1.38;;;;;;;5.80;100.00;103062.81;6221566;28;20060;-70
2022/04/16 02:59:01;;;;;;;1.95;1.00;;;;;;;5.77;100.00;103076.75;6221871;28;20045;-71
2022/04/16 03:02:05;;;;;;;1.23;0.82;;;;;;;5.72;100.00;103075.84;6220982;28;20061;-70
2022/04/16 03:05:08;;;;;;;2.00;0.90;;;;;;;5.66;100.00;103073.19;6224035;28;20490;-70
2022/04/16 03:08:12;;;;;;;2.50;0.90;;;;;;;5.51;100.00;103076.59;6226327;28;20054;-70
2022/04/16 03:11:15;;;;;;;2.10;0.90;;;;;;;5.44;100.00;103077.44;6225188;28;20421;-70
2022/04/16 03:17:35;;;;;;;1.75;0.73;;;;;;;5.30;100.00;103079.09;6225959;28;20053;-71
2022/04/16 03:20:38;;;;;;;8.70;0.88;;;;;;;5.18;100.00;103084.22;6225427;28;20525;-70
2022/04/16 03:23:40;;;;;;;2.45;0.70;;;;;;;5.11;100.00;103085.03;6225122;28;20513;-70
2022/04/16 03:26:42;;;;;;;0.30;0.30;;;;;;;4.98;100.00;103084.94;6201553;28;20061;-70
2022/04/16 03:29:44;;;;;;;1.17;0.55;;;;;;;4.94;100.00;103108.38;6201347;28;20047;-71
2022/04/16 03:32:48;;;;;;;0.73;0.57;;;;;;;4.82;100.00;103106.53;6201324;28;20494;-70
2022/04/16 03:35:51;;;;;;;0.93;0.70;;;;;;;4.73;100.00;103106.47;6221279;28;20050;-70
2022/04/16 03:38:52;;;;;;;1.85;0.68;;;;;;;4.66;100.00;103108.13;6224942;28;20136;-70
2022/04/16 03:41:55;;;;;;;2.63;0.77;;;;;;;4.61;100.00;103109.81;6224362;28;20046;-70
2022/04/16 03:44:57;;;;;;;2.30;0.77;;;;;;;4.54;100.00;103116.72;6225317;28;20049;-70
2022/04/16 03:48:00;;;;;;;4.18;1.08;;;;;;;4.53;100.00;103120.16;6224942;28;20508;-70
2022/04/16 03:51:01;;;;;;;3.08;1.00;;;;;;;4.36;100.00;103126.94;6224299;28;20053;-71
2022/04/16 04:00:38;;;;;;;0.75;0.60;;;;;;;4.16;100.00;103131.91;6224016;28;20050;-68
2022/04/16 04:03:39;;;;;;;0.40;0.40;;;;;;;4.04;100.00;103137.84;6224757;28;20109;-68
2022/04/16 04:06:41;;;;;;;1.30;0.60;;;;;;;4.06;100.00;103141.34;6224851;28;20045;-68
2022/04/16 04:09:42;;;;;;;3.88;0.70;;;;;;;3.96;100.00;103136.00;6224848;28;20140;-67
2022/04/16 04:12:45;;;;;;;0.80;0.45;;;;;;;3.85;100.00;103150.59;6224521;28;20655;-68
2022/04/16 04:15:46;;;;;;;0.68;0.52;;;;;;;3.82;100.00;103148.84;6223556;28;20049;-68
2022/04/16 04:18:48;;;;;;;0.80;0.60;;;;;;;3.83;100.00;103154.91;6224675;28;20052;-67
2022/04/16 04:21:49;;;;;;;0.90;0.30;;;;;;;3.72;100.00;103157.34;6223877;28;20531;-68
2022/04/16 04:24:50;;;;;;;0.47;0.38;;;;;;;3.65;100.00;103159.00;6224817;28;20050;-68
2022/04/16 04:27:53;;;;;;;1.23;0.60;;;;;;;3.61;100.00;103166.72;6224435;28;20053;-68
2022/04/16 04:30:55;;;;;;;1.48;0.70;;;;;;;3.53;100.00;103183.06;6223523;28;20129;-68
2022/04/16 04:33:56;;;;;;;1.48;0.75;;;;;;;3.52;100.00;103185.66;6224339;28;20052;-68
2022/04/16 04:36:58;;;;;;;0.95;0.55;;;;;;;3.40;100.00;103188.94;6224434;28;20501;-68
2022/04/16 04:39:59;;;;;;;1.25;0.60;;;;;;;3.42;100.00;103188.97;6224014;28;20061;-68
2022/04/16 04:43:02;;;;;;;4.40;0.88;;;;;;;3.45;100.00;103192.50;6223308;28;20058;-68
2022/04/16 04:46:03;;;;;;;3.05;1.00;;;;;;;3.40;100.00;103190.66;6224004;28;20068;-68
2022/04/16 04:49:07;;;;;;;0.75;0.52;;;;;;;3.37;100.00;103201.91;6223746;28;20050;-67
2022/04/16 04:52:09;;;;;;;0.73;0.68;;;;;;;3.25;100.00;103212.09;6223351;28;20516;-68
2022/04/16 04:55:12;;;;;;;1.95;0.95;;;;;;;3.21;100.00;103218.06;6223726;28;20405;-68
2022/04/16 04:58:15;;;;;;;0.57;0.50;;;;;;;3.21;100.00;103218.94;6223915;28;20061;-68
2022/04/16 05:01:18;;;;;;;1.60;0.68;;;;;;;3.28;100.00;103227.75;6222895;28;20097;-68
2022/04/16 05:04:19;;;;;;;1.95;0.80;;;;;;;3.25;100.00;103225.06;6223480;28;20457;-68
2022/04/16 05:07:20;;;;;;;1.00;0.65;;;;;;;3.23;100.00;103229.38;6223348;28;20064;-67
2022/04/16 05:10:22;;;;;;;0.73;0.45;;;;;;;3.23;100.00;103230.25;6222789;28;20046;-67
2022/04/16 05:13:24;;;;;;;4.43;0.70;;;;;;;3.29;100.00;103238.16;6223623;28;20046;-67
2022/04/16 05:16:26;;;;;;;2.40;0.93;;;;;;;3.29;100.00;103240.75;6223139;28;20080;-67
2022/04/16 05:19:27;;;;;;;2.58;0.70;;;;;;;3.28;100.00;103241.59;6223074;28;20057;-68
2022/04/16 05:22:31;;;;;;;1.60;0.80;;;;;;;3.26;100.00;103238.09;6222441;28;20406;-67
2022/04/16 05:25:32;;;;;;;0.77;0.57;;;;;;;3.28;100.00;103231.22;6223060;28;20519;-67
2022/04/16 05:28:35;;;;;;;2.20;0.95;;;;;;;3.26;100.00;103229.41;6222648;28;20046;-67
2022/04/16 05:31:36;;;;;;;2.83;0.88;;;;;;;3.28;100.00;103222.53;6222420;28;20046;-68
2022/04/16 05:34:38;;;;;;;4.22;0.80;;;;;;;3.27;100.00;103224.28;6222963;28;20045;-67
2022/04/16 05:37:39;;;;;;;0.40;0.40;;;;;;;3.29;100.00;103217.34;6223012;28;20053;-68
2022/04/16 05:40:40;;;;;;;9.38;1.10;;;;;;;3.36;100.00;103222.66;6221625;28;20053;-67
2022/04/16 05:43:43;;;;;;;1.15;0.65;;;;;;;3.44;100.00;103228.84;6222992;28;20496;-68
2022/04/16 05:46:45;;;;;;;1.35;0.68;;;;;;;3.47;100.00;103231.50;6222574;28;20046;-70
2022/04/16 05:49:46;;;;;;;1.55;0.63;;;;;;;3.42;100.00;103241.84;6221931;28;20390;-68
2022/04/16 05:52:49;;;;;;;0.65;0.60;;;;;;;3.48;100.00;103239.31;6222176;28;20049;-68
2022/04/16 05:55:51;;;;;;;0.85;0.73;;;;;;;3.47;100.00;103247.97;6222553;28;20054;-68
2022/04/16 05:58:54;;;;;;;2.60;0.60;;;;;;;3.55;100.00;103255.91;6222552;28;20133;-68
2022/04/16 06:01:56;;;;;;;0.52;0.52;;;;;;;3.60;100.00;103259.47;6221747;28;20053;-67
2022/04/16 06:04:58;;;;;;;1.85;0.57;;;;;;;3.53;100.00;103263.66;6222482;28;20054;-68
2022/04/16 06:08:00;;;;;;;0.65;0.50;;;;;;;3.67;100.00;103263.88;6222337;28;20486;-70
2022/04/16 06:11:01;;;;;;;5.28;0.82;;;;;;;3.69;100.00;103269.13;6221684;28;20050;-69
2022/04/16 06:14:04;;;;;;;0.47;0.40;;;;;;;3.67;100.00;103266.50;6222189;28;20046;-68
2022/04/16 06:17:05;;;;;;;2.28;0.68;;;;;;;3.84;100.00;103265.88;6222524;28;20042;-68
2022/04/16 06:20:08;;;;;;;1.75;0.65;;;;;;;3.80;100.00;103273.63;6221757;28;20065;-67
2022/04/16 06:23:09;;;;;;;1.50;0.75;;;;;;;3.76;100.00;103269.22;6221588;28;20651;-67
2022/04/16 06:26:11;;;;;;;2.05;0.60;;;;;;;3.81;100.00;103275.41;6222078;28;20046;-70
2022/04/16 06:29:13;;;;;;;0.85;0.43;;;;;;;3.88;100.00;103276.34;6222174;28;20053;-70
2022/04/16 06:32:15;;;;;;;0.52;0.52;;;;;;;3.89;100.00;103272.91;6221522;28;20050;-69
2022/04/16 06:35:16;;;;;;;2.00;0.70;;;;;;;3.96;100.00;103274.75;6222216;28;20049;-70
2022/04/16 06:38:17;;;;;;;0.65;0.50;;;;;;;4.03;100.00;103275.69;6222131;28;20049;-70
2022/04/16 06:41:19;;;;;;;0.75;0.73;;;;;;;4.12;100.00;103281.03;6225934;28;20525;-70
2022/04/16 06:44:21;;;;;;;0.57;0.57;;;;;;;4.18;100.00;103275.94;6227159;28;20054;-69
2022/04/16 06:47:23;;;;;;;1.05;0.50;;;;;;;4.24;100.00;103281.22;6226532;28;20464;-70
2022/04/16 06:50:24;;;;;;;0.85;0.68;;;;;;;4.28;100.00;103283.00;6225786;28;20456;-69
2022/04/16 06:53:26;;;;;;;0.52;0.32;;;;;;;4.40;100.00;103273.59;6226646;28;20058;-70
2022/04/16 06:56:27;;;;;;;1.48;0.77;;;;;;;4.52;100.00;103281.59;6226430;28;20053;-70
2022/04/16 06:59:30;;;;;;;0.60;0.40;;;;;;;4.61;100.00;103283.44;6226646;28;20049;-70
2022/04/16 07:02:31;;;;;;;0.40;0.30;;;;;;;4.68;100.00;103273.13;6225768;28;20421;-70
2022/04/16 07:05:34;;;;;;;1.80;0.90;;;;;;;4.73;100.00;103281.84;6226483;28;20049;-70
2022/04/16 07:08:35;;;;;;;0.40;0.40;;;;;;;4.74;100.00;103285.31;6226106;28;20411;-70
2022/04/16 07:11:37;;;;;;;1.35;0.55;;;;;;;4.81;100.00;103290.63;6225936;28;20042;-70
2022/04/16 07:14:40;;;;;;;0.30;0.22;;;;;;;4.91;100.00;103290.75;6226102;28;20050;-70
2022/04/16 07:17:41;;;;;;;1.52;0.60;;;;;;;4.95;100.00;103292.50;6226311;28;20061;-70
2022/04/16 07:20:43;;;;;;;1.15;0.43;;;;;;;4.95;100.00;103301.22;6225178;28;20524;-70
2022/04/16 07:23:44;;;;;;;1.15;0.38;;;;;;;5.06;100.00;103301.31;6226303;28;20050;-70
2022/04/16 07:26:47;;;;;;;0.30;0.30;;;;;;;5.15;100.00;103296.19;6225835;28;20053;-70
2022/04/16 07:29:52;;;;;;;0.60;0.28;;;;;;;5.17;100.00;103299.69;6225720;28;20066;-70
2022/04/16 07:32:53;;;;;;;0.38;0.38;;;;;;;5.19;100.00;103299.72;6225457;28;20046;-70
2022/04/16 07:35:55;;;;;;;0.95;0.63;;;;;;;5.26;100.00;103302.38;6225728;28;20052;-70
2022/04/16 07:38:56;;;;;;;1.40;0.40;;;;;;;5.35;100.00;103302.47;6225657;28;20120;-70
2022/04/16 07:41:58;;;;;;;0.10;0.10;;;;;;;5.40;100.00;103299.91;6224929;28;20050;-70
2022/04/16 07:45:00;;;;;;;0.82;0.40;;;;;;;5.48;100.00;103306.06;6223819;28;20058;-70
2022/04/16 07:48:02;;;;;;;0.63;0.40;;;;;;;5.50;100.00;103300.88;6224862;28;20057;-70
2022/04/16 07:51:03;;;;;;;0.45;0.20;;;;;;;5.56;100.00;103306.16;6224527;28;20420;-70
2022/04/16 07:54:04;;;;;;;0.88;0.60;;;;;;;5.54;100.00;103306.16;6224564;28;20054;-70
2022/04/16 07:57:06;;;;;;;1.98;0.63;;;;;;;5.65;100.00;103308.84;6225283;28;20136;-70
2022/04/16 08:00:11;;;;;;;0.20;0.20;;;;;;;5.68;100.00;103311.47;6224476;28;20057;-70
2022/04/16 08:03:12;;;;;;;0.20;0.20;;;;;;;5.77;100.00;103316.78;6225058;28;20520;-70
2022/04/16 08:06:14;;;;;;;0.52;0.52;;;;;;;5.80;100.00;103311.56;6224834;28;20057;-70
2022/04/16 08:09:15;;;;;;;2.63;0.20;;;;;;;5.85;100.00;103316.81;6224782;28;20054;-69
2022/04/16 08:12:18;;;;;;;1.05;0.20;;;;;;;5.92;100.00;103321.25;6224428;28;20049;-75
2022/04/16 08:15:21;;;;;;;0.38;0.38;;;;;;;6.08;100.00;103324.84;6224727;28;20425;-75
2022/04/16 08:18:22;;;;;;;0.20;0.20;;;;;;;6.23;98.57;103327.56;6224706;28;20049;-70
2022/04/16 08:21:25;;;;;;;0.28;0.28;;;;;;;6.22;99.16;103319.72;6223778;28;20485;-70
2022/04/16 08:24:39;;;;;;;2.03;0.60;;;;;;;6.21;100.00;103323.19;6224915;28;20050;-70
2022/04/16 08:27:42;;;;;;;0.30;0.30;;;;;;;6.19;97.29;103317.09;6224344;28;20053;-70
2022/04/16 08:30:45;;;;;;;0.75;0.57;;;;;;;6.23;100.00;103324.97;6223770;28;20133;-70
2022/04/16 08:33:46;;;;;;;0.45;0.45;;;;;;;6.38;96.36;103305.88;6224278;28;20052;-70
2022/04/16 08:36:48;;;;;;;1.08;0.20;;;;;;;6.45;95.85;103307.69;6224340;28;20046;-70
2022/04/16 08:39:49;;;;;;;0.75;0.30;;;;;;;6.54;95.45;103309.44;6224294;28;20045;-70
2022/04/16 08:42:51;;;;;;;0.40;0.40;;;;;;;6.62;90.51;103310.34;6223780;28;20050;-69
2022/04/16 08:45:56;;;;;;;0.50;0.50;;;;;;;6.70;89.53;103315.63;6224075;28;20061;-70
2022/04/16 08:48:59;;;;;;;1.85;0.40;;;;;;;6.83;88.13;103317.41;6223854;28;20053;-70
2022/04/16 08:52:02;;;;;;;0.73;0.35;;;;;;;6.85;92.33;103311.31;6223317;28;20054;-70
2022/04/16 08:55:05;;;;;;;0.38;0.38;;;;;;;7.17;87.98;103317.50;6223648;28;20046;-69
2022/04/16 08:58:06;;;;;;;0.55;0.47;;;;;;;7.14;83.96;103317.50;6222533;28;20046;-69
2022/04/16 09:01:09;;;;;;;0.40;0.40;;;;;;;7.21;87.61;103306.19;6220640;28;20576;-69
2022/04/16 09:04:19;;;;;;;0.30;0.30;;;;;;;7.30;87.15;103312.28;6223246;28;20042;-69
2022/04/16 09:07:21;;;;;;;0.28;0.28;;;;;;;7.33;82.97;103312.31;6223749;28;20046;-69
2022/04/16 09:10:26;;;;;;;1.85;0.40;;;;;;;7.51;82.61;103316.69;6222901;28;20057;-69
2022/04/16 09:13:27;;;;;;;0.40;0.40;;;;;;;7.48;85.71;103310.56;6223425;28;20054;-69
2022/04/16 09:16:32;;;;;;;1.50;0.52;;;;;;;7.59;83.60;103320.19;6223459;28;20060;-69
2022/04/16 09:19:34;;;;;;;0.30;0.30;;;;;;;7.65;79.23;103313.22;6223234;28;20576;-70
2022/04/16 09:22:37;;;;;;;0.93;0.30;;;;;;;7.72;79.55;103312.31;6222825;28;20060;-70
2022/04/16 09:25:42;;;;;;;1.85;0.65;;;;;;;7.80;79.97;103300.97;6223367;28;20056;-69
2022/04/16 09:28:44;;;;;;;0.30;0.30;;;;;;;7.92;79.65;103317.56;6223217;28;20054;-70
2022/04/16 09:31:49;;;;;;;0.50;0.50;;;;;;;8.03;76.02;103306.19;6218782;28;20189;-70
2022/04/16 09:34:51;;;;;;;0.93;0.47;;;;;;;8.02;79.46;103306.19;6199685;28;20052;-70
2022/04/16 09:37:54;;;;;;;0.15;0.15;;;;;;;8.06;79.04;103311.44;6198305;28;20050;-69
2022/04/16 09:40:56;;;;;;;0.57;0.50;;;;;;;8.16;78.05;103316.66;6197731;28;20061;-69
2022/04/16 09:43:57;;;;;;;0.25;0.20;;;;;;;8.23;79.21;103305.28;6198033;28;20062;-70
2022/04/16 09:47:00;;;;;;;2.55;0.50;;;;;;;8.25;77.46;103308.78;6198330;28;20425;-69
2022/04/16 09:50:03;;;;;;;0.60;0.30;;;;;;;8.30;77.43;103312.25;6197953;28;20050;-70
2022/04/16 09:53:06;;;;;;;0.52;0.32;;;;;;;8.31;79.83;103313.97;6197755;28;20050;-69
2022/04/16 09:56:11;;;;;;;0.30;0.20;;;;;;;8.31;75.73;103314.88;6198374;28;20181;-70
2022/04/16 09:59:14;;;;;;;1.10;0.30;;;;;;;8.44;77.41;103326.22;6198064;28;20486;-70
2022/04/16 10:02:16;;;;;;;0.45;0.30;;;;;;;8.47;75.50;103320.97;6197737;28;20046;-69
2022/04/16 10:05:20;;;;;;;0.20;0.20;;;;;;;8.48;73.94;103317.47;6198032;28;20046;-70
2022/04/16 10:08:23;;;;;;;4.25;0.35;;;;;;;8.50;75.79;103315.72;6220659;28;20050;-71
2022/04/16 10:14:47;;;;;;;0.88;0.35;;;;;;;8.94;76.12;103311.16;6220455;28;20473;-71
2022/04/16 10:17:51;;;;;;;0.52;0.32;;;;;;;9.05;74.72;103306.75;6221889;28;20110;-71
2022/04/16 10:20:54;;;;;;;0.28;0.28;;;;;;;9.10;73.76;103311.06;6217592;28;20061;-71
2022/04/16 10:24:01;;;;;;;1.98;0.40;;;;;;;9.07;73.78;103320.69;6221896;28;20049;-71
2022/04/16 10:27:08;;;;;;;0.20;0.20;;;;;;;9.04;73.42;103321.59;6222240;28;20053;-71
2022/04/16 10:30:11;;;;;;;4.38;0.55;;;;;;;9.13;69.95;103305.81;6221759;28;20060;-71
2022/04/16 10:33:18;;;;;;;0.40;0.35;;;;;;;9.43;70.11;103311.72;6221933;28;20053;-71
2022/04/16 10:36:25;;;;;;;0.55;0.40;;;;;;;9.59;70.71;103308.09;6221993;28;20053;-70
2022/04/16 10:39:28;;;;;;;1.00;0.40;;;;;;;9.79;71.00;103304.44;6222077;28;20046;-70
2022/04/16 10:42:31;;;;;;;0.30;0.30;;;;;;;9.80;68.34;103306.16;6221135;28;20463;-70
2022/04/16 10:45:35;;;;;;;0.45;0.38;;;;;;;9.76;71.74;103305.31;6221673;28;20054;-68
2022/04/16 10:48:39;;;;;;;2.20;0.68;;;;;;;9.95;70.93;103307.78;6221525;28;20068;-70
2022/04/16 10:51:40;;;;;;;0.40;0.40;;;;;;;10.20;71.50;103300.53;6221148;28;20050;-69
2022/04/16 10:54:42;;;;;;;0.98;0.50;;;;;;;10.40;72.78;103291.59;6222080;28;20054;-69
2022/04/16 10:57:43;;;;;;;0.52;0.35;;;;;;;10.57;66.89;103286.09;6218167;28;20050;-69
2022/04/16 11:00:45;;;;;;;0.30;0.30;;;;;;;10.59;68.24;103284.34;6221131;28;20522;-67
2022/04/16 11:03:49;;;;;;;0.40;0.40;;;;;;;11.01;66.04;103283.78;6198252;28;20462;-68
2022/04/16 11:06:51;;;;;;;0.40;0.40;;;;;;;11.10;65.11;103289.75;6210994;28;20057;-69
2022/04/16 11:09:53;;;;;;;0.50;0.40;;;;;;;11.08;62.78;103275.78;6221229;28;20057;-68
2022/04/16 11:12:55;;;;;;;2.13;0.45;;;;;;;11.43;64.35;103271.69;6208996;28;20053;-67
2022/04/16 11:15:57;;;;;;;0.73;0.50;;;;;;;11.66;65.39;103266.03;6196993;28;20050;-69
2022/04/16 11:19:00;;;;;;;0.98;0.40;;;;;;;11.83;60.46;103271.94;6197303;28;20046;-68
2022/04/16 11:22:01;;;;;;;0.90;0.30;;;;;;;11.94;56.88;103271.72;6196464;28;20050;-67
2022/04/16 11:25:07;;;;;;;0.30;0.30;;;;;;;12.12;57.95;103278.41;6198202;28;20053;-67
2022/04/16 11:34:51;;;;;;;0.28;0.28;;;;;;;13.36;51.41;103268.69;6201631;28;20125;-67
2022/04/16 11:37:56;;;;;;;0.77;0.30;;;;;;;13.77;47.30;103265.91;6201576;28;20072;-68
2022/04/16 11:40:59;;;;;;;0.20;0.20;;;;;;;14.27;43.25;103255.72;6200348;28;20413;-68
2022/04/16 11:44:00;;;;;;;0.20;0.20;;;;;;;14.58;43.47;103256.59;6201521;28;20051;-68
2022/04/16 11:47:02;;;;;;;0.45;0.30;;;;;;;14.98;39.47;103245.63;6201331;28;20057;-69
2022/04/16 11:50:07;;;;;;;0.40;0.20;;;;;;;15.18;40.45;103246.78;6200531;28;20145;-69
2022/04/16 11:53:11;;;;;;;0.20;0.20;;;;;;;15.45;38.42;103243.22;6200738;28;20050;-69
2022/04/16 11:56:12;;;;;;;0.82;0.45;;;;;;;15.47;40.05;103241.34;6200991;28;20426;-69
2022/04/16 11:59:23;;;;;;;0.40;0.30;;;;;;;15.51;39.53;103236.81;6200599;28;20054;-69
2022/04/16 12:02:31;;;;;;;0.22;0.22;;;;;;;15.97;38.29;103230.78;6200257;28;20054;-70
2022/04/16 12:05:34;;;;;;;0.73;0.30;;;;;;;15.88;41.00;103232.91;6200987;28;20049;-69
2022/04/16 12:08:35;;;;;;;2.75;0.30;;;;;;;16.15;36.98;103231.91;6200551;28;20046;-69
2022/04/16 12:11:37;;;;;;;0.20;0.20;;;;;;;16.11;35.51;103232.94;6199739;28;20063;-68
2022/04/16 12:14:45;;;;;;;0.30;0.30;;;;;;;16.36;36.60;103235.56;6210086;28;20049;-69
2022/04/16 12:17:46;;;;;;;0.50;0.30;;;;;;;16.92;35.15;103236.94;6220212;28;20042;-68
2022/04/16 12:20:49;;;;;;;0.50;0.40;;;;;;;16.42;35.36;103235.31;6223800;28;20050;-68
2022/04/16 12:23:51;;;;;;;0.20;0.20;;;;;;;17.18;36.61;103238.53;6224731;28;20045;-69
2022/04/16 12:26:52;;;;;;;0.20;0.20;;;;;;;16.63;34.48;103230.97;6224277;28;20058;-69
2022/04/16 12:29:56;;;;;;;0.20;0.20;;;;;;;17.24;32.75;103232.97;6224116;28;20568;-68
2022/04/16 12:32:59;;;;;;;0.73;0.30;;;;;;;17.19;31.60;103235.81;6223991;28;20054;-69
2022/04/16 12:36:01;;;;;;;0.13;0.13;;;;;;;17.19;34.70;103235.81;6224416;28;20060;-68
2022/04/16 12:39:03;;;;;;;0.30;0.30;;;;;;;17.40;32.96;103236.72;6223687;28;20042;-69
2022/04/16 12:42:05;;;;;;;0.20;0.20;;;;;;;17.30;31.81;103229.19;6223426;28;20050;-69
2022/04/16 12:45:07;;;;;;;0.20;0.20;;;;;;;18.08;30.79;103223.16;6223862;28;20453;-68
2022/04/16 12:48:09;;;;;;;0.45;0.25;;;;;;;18.46;29.45;103226.69;6224033;28;20433;-68
2022/04/16 12:51:12;;;;;;;1.15;0.40;;;;;;;18.92;30.07;103222.72;6223566;28;20050;-68
2022/04/16 12:54:13;;;;;;;0.10;0.10;;;;;;;18.69;29.63;103226.50;6223791;28;20512;-68
2022/04/16 12:57:15;;;;;;;0.85;0.38;;;;;;;17.77;30.21;103215.69;6224123;28;20054;-69
2022/04/16 13:00:17;;;;;;;0.13;0.13;;;;;;;18.06;32.21;103206.38;6223444;28;20049;-69
2022/04/16 13:03:19;;;;;;;0.20;0.20;;;;;;;17.39;28.16;103213.69;6223871;28;20053;-69
2022/04/16 13:06:21;;;;;;;0.30;0.30;;;;;;;17.77;28.84;103203.25;6223789;28;20056;-68
2022/04/16 13:09:23;;;;;;;0.32;0.32;;;;;;;17.60;31.24;103200.44;6223350;28;20076;-68
2022/04/16 13:12:25;;;;;;;1.52;0.50;;;;;;;18.31;31.53;103196.34;6223052;28;20058;-69
2022/04/16 13:15:26;;;;;;;1.42;0.30;;;;;;;18.37;27.49;103177.41;6222365;28;20516;-70
2022/04/16 13:18:28;;;;;;;1.08;0.20;;;;;;;18.13;31.80;103183.88;6223339;28;20054;-68
2022/04/16 13:21:32;;;;;;;0.20;0.20;;;;;;;18.56;31.88;103180.03;6222454;28;20056;-69
2022/04/16 13:24:35;;;;;;;0.30;0.20;;;;;;;18.51;29.15;103176.75;6223436;28;20520;-72
2022/04/16 13:27:37;;;;;;;0.10;0.10;;;;;;;19.38;27.58;103169.72;6223145;28;20504;-71
2022/04/16 13:30:39;;;;;;;0.20;0.20;;;;;;;18.93;27.14;103171.13;6222419;28;20046;-71
2022/04/16 13:33:40;;;;;;;0.20;0.20;;;;;;;18.82;29.03;103169.97;6222886;28;20425;-71
2022/04/16 13:36:43;;;;;;;3.60;0.20;;;;;;;19.12;26.44;103171.09;6223241;28;20056;-72
2022/04/16 13:43:03;;;;;;;0.25;0.25;;;;;;;18.84;27.85;103162.75;6222592;28;20057;-69
2022/04/16 13:46:04;;;;;;;0.20;0.10;;;;;;;19.10;28.56;103161.44;6220730;28;20057;-69
2022/04/16 13:49:06;;;;;;;0.95;0.25;;;;;;;19.79;27.43;103163.19;6216727;28;20084;-69
2022/04/16 13:52:09;;;;;;;0.10;0.10;;;;;;;19.56;27.32;103161.72;6221709;28;20417;-69
2022/04/16 13:55:10;;;;;;;0.47;0.25;;;;;;;19.56;26.05;103157.25;6222705;28;20053;-69
2022/04/16 13:58:12;;;;;;;0.20;0.20;;;;;;;19.51;26.09;103157.50;6222685;28;20053;-69
2022/04/16 14:01:17;;;;;;;0.32;0.32;;;;;;;18.99;27.14;103152.19;6221293;28;20520;-69
2022/04/16 14:04:18;;;;;;;0.30;0.30;;;;;;;19.05;26.97;103151.00;6222427;28;20049;-69
2022/04/16 14:07:21;;;;;;;1.85;0.20;;;;;;;19.90;26.41;103139.47;6222393;28;20045;-69
2022/04/16 14:10:22;;;;;;;0.25;0.25;;;;;;;19.92;26.73;103141.09;6220639;28;20053;-68
2022/04/16 14:13:25;;;;;;;0.65;0.65;;;;;;;20.11;25.57;103132.06;6219793;28;20057;-69
2022/04/16 14:16:26;;;;;;;0.65;0.20;;;;;;;19.52;26.39;103131.69;6211933;28;20421;-69
2022/04/16 14:19:28;;;;;;;0.22;0.20;;;;;;;19.46;28.16;103127.53;6210606;28;20046;-69
2022/04/16 14:22:31;;;;;;;0.20;0.20;;;;;;;20.46;25.14;103130.09;6213334;28;20078;-69
2022/04/16 14:25:32;;;;;;;0.20;0.20;;;;;;;19.93;26.20;103120.59;6210297;28;20053;-69
2022/04/16 14:28:35;;;;;;;0.30;0.30;;;;;;;19.34;26.38;103117.50;6218316;28;20046;-69
2022/04/16 14:31:37;;;;;;;0.20;0.20;;;;;;;20.74;23.87;103130.25;6223185;23;20394;-69
2022/04/16 14:34:38;;;;;;;0.52;0.30;;;;;;;20.38;24.37;103127.00;6237622;28;20073;-69
2022/04/16 14:37:42;;;;;;;1.00;0.30;;;;;;;20.17;24.00;103116.59;6268581;23;20048;-69